SVR547 ULLI-URSS
Flight info
| Callsign | SVR547 |
|---|---|
| Flight time | N/A |
| Altitude | 31000 |
| Route | SUGIN1B SUGIN T873 NIRGI DCT OSKAD DCT UPERI DCT OMEZA DCT ABAGI/K0843F330 B105 NIMTA DCT SL DCT LIDUS DCT AST DCT DITEK/K0856F340 DCT GOTIK DCT MEMZA DCT OKOBA DCT VENFO DCT BINOL BINOL1K |
| Aircraft | A321/M-SDE3FGHIRWY/LB1 |
Departure
| Time | 2026-05-06 11:51 |
|---|---|
| Airport | Pulkovo Airport (ULLI) |
Arrival
| Time | N/A |
|---|---|
| Airport | Sochi International Airport (URSS) |
| Time | Latitude | Longitude | Altitude | Speed | Heading |
|---|---|---|---|---|---|
| 2026-05-06 11:10 | 59.79815 | 30.26647 | 113 ft | 0 kts | 107° |
| 2026-05-06 11:38 | 59.79817 | 30.26638 | 98 ft | 3 kts | 105° |
| 2026-05-06 11:38 | 59.79821 | 30.26593 | 96 ft | 3 kts | 84° |
| 2026-05-06 11:39 | 59.79814 | 30.26552 | 95 ft | 3 kts | 48° |
| 2026-05-06 11:39 | 59.79796 | 30.26525 | 95 ft | 3 kts | 19° |
| 2026-05-06 11:39 | 59.79774 | 30.26512 | 95 ft | 2 kts | 16° |
| 2026-05-06 11:39 | 59.79773 | 30.26512 | 95 ft | 0 kts | 17° |
| 2026-05-06 11:43 | 59.79776 | 30.26513 | 95 ft | 2 kts | 17° |
| 2026-05-06 11:43 | 59.79817 | 30.26538 | 96 ft | 10 kts | 17° |
| 2026-05-06 11:43 | 59.79887 | 30.26580 | 92 ft | 11 kts | 17° |
| 2026-05-06 11:44 | 59.80022 | 30.26660 | 89 ft | 10 kts | 16° |
| 2026-05-06 11:44 | 59.80087 | 30.26698 | 89 ft | 10 kts | 16° |
| 2026-05-06 11:44 | 59.80154 | 30.26737 | 92 ft | 10 kts | 16° |
| 2026-05-06 11:44 | 59.80221 | 30.26777 | 93 ft | 10 kts | 16° |
| 2026-05-06 11:45 | 59.80290 | 30.26817 | 88 ft | 10 kts | 16° |
| 2026-05-06 11:45 | 59.80357 | 30.26856 | 89 ft | 8 kts | 16° |
| 2026-05-06 11:45 | 59.80383 | 30.26935 | 89 ft | 8 kts | 96° |
| 2026-05-06 11:45 | 59.80369 | 30.27041 | 89 ft | 9 kts | 107° |
| 2026-05-06 11:46 | 59.80344 | 30.27204 | 92 ft | 15 kts | 107° |
| 2026-05-06 11:46 | 59.80312 | 30.27423 | 90 ft | 17 kts | 106° |
| 2026-05-06 11:46 | 59.80278 | 30.27650 | 87 ft | 17 kts | 107° |
| 2026-05-06 11:46 | 59.80243 | 30.27880 | 88 ft | 17 kts | 106° |
| 2026-05-06 11:47 | 59.80209 | 30.28110 | 87 ft | 17 kts | 106° |
| 2026-05-06 11:47 | 59.80174 | 30.28341 | 85 ft | 17 kts | 107° |
| 2026-05-06 11:47 | 59.80139 | 30.28578 | 80 ft | 20 kts | 106° |
| 2026-05-06 11:47 | 59.80089 | 30.28908 | 80 ft | 24 kts | 107° |
| 2026-05-06 11:48 | 59.80042 | 30.29226 | 73 ft | 24 kts | 106° |
| 2026-05-06 11:48 | 59.79998 | 30.29525 | 75 ft | 22 kts | 107° |
| 2026-05-06 11:48 | 59.79960 | 30.29770 | 81 ft | 18 kts | 107° |
| 2026-05-06 11:48 | 59.79934 | 30.29976 | 80 ft | 11 kts | 91° |
| 2026-05-06 11:49 | 59.79974 | 30.30101 | 79 ft | 11 kts | 47° |
| 2026-05-06 11:49 | 59.80026 | 30.30215 | 75 ft | 11 kts | 47° |
| 2026-05-06 11:49 | 59.80084 | 30.30297 | 78 ft | 9 kts | 9° |
| 2026-05-06 11:49 | 59.80118 | 30.30245 | 75 ft | 6 kts | 291° |
| 2026-05-06 11:50 | 59.80136 | 30.30129 | 75 ft | 17 kts | 287° |
| 2026-05-06 11:50 | 59.80219 | 30.29593 | 75 ft | 69 kts | 287° |
| 2026-05-06 11:50 | 59.80416 | 30.28284 | 79 ft | 127 kts | 286° |
| 2026-05-06 11:50 | 59.80715 | 30.26279 | 111 ft | 172 kts | 287° |
| 2026-05-06 11:51 | 59.81042 | 30.24039 | 859 ft | 165 kts | 289° |
| 2026-05-06 11:51 | 59.81361 | 30.21892 | 1694 ft | 159 kts | 287° |
| 2026-05-06 11:51 | 59.81682 | 30.19791 | 2252 ft | 158 kts | 287° |
| 2026-05-06 11:51 | 59.82015 | 30.17684 | 2716 ft | 160 kts | 288° |
| 2026-05-06 11:52 | 59.82338 | 30.15570 | 3295 ft | 160 kts | 287° |
| 2026-05-06 11:52 | 59.82663 | 30.13392 | 3605 ft | 172 kts | 286° |
| 2026-05-06 11:52 | 59.83009 | 30.10990 | 3741 ft | 189 kts | 287° |
| 2026-05-06 11:52 | 59.83389 | 30.08332 | 3860 ft | 211 kts | 286° |
| 2026-05-06 11:53 | 59.83807 | 30.05424 | 4258 ft | 220 kts | 287° |
| 2026-05-06 11:53 | 59.84229 | 30.02480 | 4892 ft | 226 kts | 284° |
| 2026-05-06 11:53 | 59.84242 | 29.99245 | 5181 ft | 245 kts | 255° |
| 2026-05-06 11:53 | 59.83337 | 29.96304 | 5711 ft | 260 kts | 222° |
| 2026-05-06 11:54 | 59.81685 | 29.94781 | 6312 ft | 273 kts | 189° |
| 2026-05-06 11:54 | 59.79794 | 29.95365 | 6880 ft | 284 kts | 155° |
| 2026-05-06 11:54 | 59.78268 | 29.97895 | 7447 ft | 292 kts | 130° |
| 2026-05-06 11:54 | 59.77088 | 30.01206 | 8066 ft | 296 kts | 122° |
| 2026-05-06 11:55 | 59.76055 | 30.04771 | 8641 ft | 300 kts | 120° |
| 2026-05-06 11:55 | 59.75053 | 30.08430 | 9222 ft | 304 kts | 120° |
| 2026-05-06 11:55 | 59.74022 | 30.12137 | 9793 ft | 309 kts | 121° |
| 2026-05-06 11:55 | 59.72943 | 30.15862 | 10231 ft | 318 kts | 122° |
| 2026-05-06 11:56 | 59.71773 | 30.19742 | 10323 ft | 337 kts | 124° |
| 2026-05-06 11:56 | 59.70549 | 30.23687 | 10731 ft | 343 kts | 125° |
| 2026-05-06 11:56 | 59.69264 | 30.27770 | 10971 ft | 358 kts | 125° |
| 2026-05-06 11:56 | 59.67909 | 30.32039 | 11095 ft | 374 kts | 126° |
| 2026-05-06 11:57 | 59.66491 | 30.36487 | 11233 ft | 390 kts | 126° |
| 2026-05-06 11:57 | 59.65010 | 30.41122 | 11355 ft | 405 kts | 125° |
| 2026-05-06 11:57 | 59.63478 | 30.45920 | 11496 ft | 420 kts | 125° |
| 2026-05-06 11:57 | 59.61906 | 30.50850 | 11838 ft | 427 kts | 126° |
| 2026-05-06 11:58 | 59.60315 | 30.55845 | 12288 ft | 432 kts | 126° |
| 2026-05-06 11:58 | 59.58707 | 30.60895 | 12737 ft | 437 kts | 126° |
| 2026-05-06 11:58 | 59.57082 | 30.65989 | 13192 ft | 441 kts | 126° |
| 2026-05-06 11:58 | 59.55436 | 30.71140 | 13633 ft | 446 kts | 127° |
| 2026-05-06 11:59 | 59.53771 | 30.76330 | 14096 ft | 449 kts | 127° |
| 2026-05-06 11:59 | 59.52088 | 30.81555 | 14511 ft | 453 kts | 127° |
| 2026-05-06 11:59 | 59.50390 | 30.86810 | 14949 ft | 457 kts | 127° |
| 2026-05-06 11:59 | 59.48678 | 30.92098 | 15371 ft | 460 kts | 127° |
| 2026-05-06 12:00 | 59.46952 | 30.97419 | 15784 ft | 463 kts | 127° |
| 2026-05-06 12:00 | 59.45204 | 31.02786 | 16182 ft | 466 kts | 128° |
| 2026-05-06 12:00 | 59.43446 | 31.08165 | 16580 ft | 469 kts | 128° |
| 2026-05-06 12:00 | 59.41676 | 31.13571 | 16966 ft | 472 kts | 128° |
| 2026-05-06 12:01 | 59.39891 | 31.19007 | 17343 ft | 476 kts | 128° |
| 2026-05-06 12:01 | 59.38092 | 31.24479 | 17695 ft | 479 kts | 128° |
| 2026-05-06 12:01 | 59.36279 | 31.29983 | 18063 ft | 482 kts | 128° |
| 2026-05-06 12:01 | 59.34455 | 31.35511 | 18406 ft | 485 kts | 128° |
| 2026-05-06 12:02 | 59.32619 | 31.41071 | 18705 ft | 487 kts | 128° |
| 2026-05-06 12:02 | 59.30793 | 31.46579 | 19003 ft | 490 kts | 128° |
| 2026-05-06 12:02 | 59.28927 | 31.52197 | 19312 ft | 493 kts | 129° |
| 2026-05-06 12:02 | 59.27050 | 31.57841 | 19613 ft | 496 kts | 129° |
| 2026-05-06 12:03 | 59.25163 | 31.63497 | 19911 ft | 498 kts | 129° |
| 2026-05-06 12:03 | 59.23263 | 31.69175 | 20215 ft | 501 kts | 129° |
| 2026-05-06 12:03 | 59.21348 | 31.74883 | 20475 ft | 503 kts | 129° |
| 2026-05-06 12:03 | 59.19425 | 31.80606 | 20804 ft | 504 kts | 129° |
| 2026-05-06 12:04 | 59.17496 | 31.86335 | 21129 ft | 506 kts | 129° |
| 2026-05-06 12:04 | 59.15558 | 31.92084 | 21444 ft | 508 kts | 129° |
| 2026-05-06 12:04 | 59.13611 | 31.97834 | 21744 ft | 510 kts | 129° |
| 2026-05-06 12:04 | 59.11648 | 32.03607 | 22035 ft | 512 kts | 129° |
| 2026-05-06 12:05 | 59.09671 | 32.09406 | 22309 ft | 514 kts | 129° |
| 2026-05-06 12:05 | 59.07688 | 32.15209 | 22576 ft | 517 kts | 129° |
| 2026-05-06 12:05 | 59.05692 | 32.21035 | 22849 ft | 519 kts | 129° |
| 2026-05-06 12:05 | 59.03686 | 32.26878 | 23090 ft | 520 kts | 129° |
| 2026-05-06 12:06 | 59.01670 | 32.32737 | 23403 ft | 522 kts | 129° |
| 2026-05-06 12:06 | 58.99650 | 32.38604 | 23664 ft | 524 kts | 129° |
| 2026-05-06 12:06 | 58.97645 | 32.44415 | 23900 ft | 526 kts | 129° |
| 2026-05-06 12:06 | 58.95605 | 32.50311 | 24172 ft | 526 kts | 129° |
| 2026-05-06 12:07 | 58.93567 | 32.56187 | 24516 ft | 526 kts | 130° |
| 2026-05-06 12:07 | 58.91527 | 32.62056 | 24849 ft | 525 kts | 130° |
| 2026-05-06 12:07 | 58.89482 | 32.67915 | 25180 ft | 525 kts | 130° |
| 2026-05-06 12:07 | 58.87432 | 32.73757 | 25493 ft | 525 kts | 130° |
| 2026-05-06 12:08 | 58.85378 | 32.79590 | 25832 ft | 524 kts | 130° |
| 2026-05-06 12:08 | 58.83328 | 32.85409 | 26160 ft | 524 kts | 130° |
| 2026-05-06 12:08 | 58.81282 | 32.91223 | 26492 ft | 523 kts | 130° |
| 2026-05-06 12:08 | 58.79238 | 32.97031 | 26810 ft | 523 kts | 130° |
| 2026-05-06 12:09 | 58.77189 | 33.02828 | 27141 ft | 523 kts | 130° |
| 2026-05-06 12:09 | 58.75140 | 33.08600 | 27463 ft | 522 kts | 130° |
| 2026-05-06 12:09 | 58.73085 | 33.14374 | 27790 ft | 522 kts | 130° |
| 2026-05-06 12:09 | 58.71028 | 33.20129 | 28110 ft | 522 kts | 130° |
| 2026-05-06 12:10 | 58.68967 | 33.25878 | 28398 ft | 521 kts | 130° |
| 2026-05-06 12:10 | 58.66914 | 33.31599 | 28760 ft | 520 kts | 130° |
| 2026-05-06 12:10 | 58.64861 | 33.37313 | 29102 ft | 519 kts | 130° |
| 2026-05-06 12:10 | 58.62811 | 33.43009 | 29430 ft | 519 kts | 130° |
| 2026-05-06 12:11 | 58.60761 | 33.48699 | 29753 ft | 518 kts | 130° |
| 2026-05-06 12:11 | 58.58711 | 33.54381 | 30067 ft | 518 kts | 130° |
| 2026-05-06 12:11 | 58.56654 | 33.60053 | 30321 ft | 517 kts | 130° |
| 2026-05-06 12:11 | 58.54600 | 33.65696 | 30596 ft | 517 kts | 130° |
| 2026-05-06 12:12 | 58.52545 | 33.71330 | 30876 ft | 516 kts | 130° |
| 2026-05-06 12:12 | 58.50487 | 33.76955 | 31134 ft | 514 kts | 130° |
| 2026-05-06 12:12 | 58.48438 | 33.82544 | 31426 ft | 513 kts | 130° |
| 2026-05-06 12:12 | 58.46392 | 33.88115 | 31700 ft | 512 kts | 130° |
| 2026-05-06 12:13 | 58.44347 | 33.93670 | 31976 ft | 511 kts | 130° |
| 2026-05-06 12:13 | 58.42302 | 33.99214 | 32249 ft | 510 kts | 130° |
| 2026-05-06 12:13 | 58.40261 | 34.04732 | 32519 ft | 509 kts | 130° |
| 2026-05-06 12:13 | 58.38219 | 34.10232 | 32771 ft | 508 kts | 130° |
| 2026-05-06 12:14 | 58.36176 | 34.15720 | 32929 ft | 508 kts | 130° |
| 2026-05-06 12:14 | 58.34121 | 34.21228 | 32943 ft | 512 kts | 130° |
| 2026-05-06 12:14 | 58.29956 | 34.32355 | 32959 ft | 520 kts | 130° |
| 2026-05-06 12:15 | 58.25763 | 34.43545 | 32953 ft | 524 kts | 130° |
| 2026-05-06 12:15 | 58.21432 | 34.54640 | 32949 ft | 520 kts | 137° |
| 2026-05-06 12:16 | 58.16070 | 34.63466 | 32949 ft | 505 kts | 153° |
| 2026-05-06 12:16 | 58.10262 | 34.70957 | 32930 ft | 506 kts | 152° |
| 2026-05-06 12:17 | 58.04448 | 34.78475 | 32950 ft | 507 kts | 152° |
| 2026-05-06 12:17 | 57.98628 | 34.85988 | 32961 ft | 507 kts | 152° |
| 2026-05-06 12:18 | 57.93787 | 34.92209 | 32947 ft | 506 kts | 152° |
| 2026-05-06 12:18 | 57.87967 | 34.99635 | 32921 ft | 505 kts | 152° |
| 2026-05-06 12:19 | 57.82140 | 35.07029 | 32945 ft | 505 kts | 152° |
| 2026-05-06 12:19 | 57.76317 | 35.14407 | 32941 ft | 505 kts | 152° |
| 2026-05-06 12:20 | 57.70495 | 35.21773 | 32952 ft | 505 kts | 152° |
| 2026-05-06 12:20 | 57.64672 | 35.29101 | 32951 ft | 504 kts | 152° |
| 2026-05-06 12:21 | 57.58880 | 35.36341 | 32923 ft | 504 kts | 152° |
| 2026-05-06 12:21 | 57.53043 | 35.43617 | 32924 ft | 505 kts | 152° |
| 2026-05-06 12:22 | 57.47203 | 35.50881 | 32933 ft | 505 kts | 152° |
| 2026-05-06 12:22 | 57.41346 | 35.58130 | 32928 ft | 505 kts | 152° |
| 2026-05-06 12:23 | 57.35503 | 35.65337 | 32895 ft | 504 kts | 150° |
| 2026-05-06 12:23 | 57.29662 | 35.72519 | 32917 ft | 504 kts | 151° |
| 2026-05-06 12:24 | 57.23816 | 35.79657 | 32921 ft | 503 kts | 151° |
| 2026-05-06 12:24 | 57.17966 | 35.86778 | 32926 ft | 503 kts | 151° |
| 2026-05-06 12:25 | 57.12120 | 35.93892 | 32920 ft | 503 kts | 151° |
| 2026-05-06 12:25 | 57.06306 | 36.00936 | 32907 ft | 503 kts | 151° |
| 2026-05-06 12:26 | 57.00445 | 36.07984 | 32910 ft | 503 kts | 151° |
| 2026-05-06 12:26 | 56.94582 | 36.15023 | 32914 ft | 503 kts | 151° |
| 2026-05-06 12:27 | 56.88718 | 36.22022 | 32914 ft | 503 kts | 151° |
| 2026-05-06 12:27 | 56.82851 | 36.29010 | 32871 ft | 503 kts | 150° |
| 2026-05-06 12:28 | 56.76994 | 36.35986 | 32901 ft | 503 kts | 150° |
| 2026-05-06 12:28 | 56.71137 | 36.42962 | 32905 ft | 502 kts | 150° |
| 2026-05-06 12:29 | 56.65286 | 36.49918 | 32910 ft | 502 kts | 150° |
| 2026-05-06 12:29 | 56.59426 | 36.56814 | 32910 ft | 502 kts | 150° |
| 2026-05-06 12:30 | 56.53593 | 36.63647 | 32910 ft | 502 kts | 150° |
| 2026-05-06 12:30 | 56.47727 | 36.70509 | 32910 ft | 502 kts | 150° |
| 2026-05-06 12:31 | 56.41855 | 36.77353 | 32908 ft | 502 kts | 150° |
| 2026-05-06 12:31 | 56.35987 | 36.84169 | 32911 ft | 501 kts | 150° |
| 2026-05-06 12:32 | 56.30106 | 36.90969 | 32885 ft | 501 kts | 150° |
| 2026-05-06 12:32 | 56.24242 | 36.97733 | 32891 ft | 500 kts | 150° |
| 2026-05-06 12:33 | 56.18384 | 37.04471 | 32895 ft | 499 kts | 150° |
| 2026-05-06 12:33 | 56.12562 | 37.11140 | 32895 ft | 499 kts | 150° |
| 2026-05-06 12:34 | 56.06709 | 37.17805 | 32888 ft | 499 kts | 150° |
| 2026-05-06 12:34 | 56.00851 | 37.24457 | 32877 ft | 499 kts | 150° |
| 2026-05-06 12:35 | 55.94983 | 37.31101 | 32883 ft | 499 kts | 150° |
| 2026-05-06 12:35 | 55.89118 | 37.37722 | 32886 ft | 499 kts | 150° |
| 2026-05-06 12:36 | 55.83253 | 37.44305 | 32886 ft | 498 kts | 150° |
| 2026-05-06 12:36 | 55.77385 | 37.50879 | 32874 ft | 498 kts | 149° |
| 2026-05-06 12:37 | 55.71548 | 37.57394 | 32882 ft | 498 kts | 149° |
| 2026-05-06 12:37 | 55.65678 | 37.63921 | 32881 ft | 498 kts | 150° |
| 2026-05-06 12:38 | 55.59797 | 37.70434 | 32887 ft | 498 kts | 150° |
| 2026-05-06 12:38 | 55.53916 | 37.76924 | 32876 ft | 498 kts | 149° |
| 2026-05-06 12:39 | 55.48032 | 37.83404 | 32874 ft | 498 kts | 149° |
| 2026-05-06 12:39 | 55.42139 | 37.89869 | 32875 ft | 499 kts | 149° |
| 2026-05-06 12:40 | 55.36286 | 37.96283 | 32879 ft | 499 kts | 149° |
| 2026-05-06 12:40 | 55.30458 | 38.02918 | 32881 ft | 499 kts | 148° |
| 2026-05-06 12:41 | 55.24659 | 38.09612 | 32886 ft | 499 kts | 148° |
| 2026-05-06 12:41 | 55.18846 | 38.16244 | 32882 ft | 498 kts | 148° |
| 2026-05-06 12:42 | 55.13036 | 38.22803 | 32895 ft | 496 kts | 148° |
| 2026-05-06 12:42 | 55.07229 | 38.29312 | 32894 ft | 496 kts | 148° |
| 2026-05-06 12:43 | 55.01429 | 38.35793 | 32890 ft | 494 kts | 148° |
| 2026-05-06 12:43 | 54.95648 | 38.42254 | 32895 ft | 493 kts | 148° |
| 2026-05-06 12:44 | 54.89908 | 38.48639 | 32892 ft | 492 kts | 148° |
| 2026-05-06 12:44 | 54.84144 | 38.55032 | 32891 ft | 491 kts | 148° |
| 2026-05-06 12:45 | 54.78627 | 38.62008 | 32877 ft | 491 kts | 136° |
| 2026-05-06 12:45 | 54.74504 | 38.71365 | 32884 ft | 490 kts | 117° |
| 2026-05-06 12:46 | 54.73086 | 38.76728 | 32877 ft | 489 kts | 112° |
| 2026-05-06 12:46 | 54.70427 | 38.87560 | 32874 ft | 489 kts | 112° |
| 2026-05-06 12:47 | 54.67734 | 38.98365 | 32871 ft | 489 kts | 112° |
| 2026-05-06 12:47 | 54.65034 | 39.09153 | 32877 ft | 490 kts | 113° |
| 2026-05-06 12:48 | 54.62317 | 39.19940 | 32876 ft | 490 kts | 113° |
| 2026-05-06 12:48 | 54.59620 | 39.30641 | 32878 ft | 490 kts | 113° |
| 2026-05-06 12:49 | 54.56889 | 39.41399 | 32874 ft | 490 kts | 113° |
| 2026-05-06 12:49 | 54.54153 | 39.52152 | 32880 ft | 490 kts | 113° |
| 2026-05-06 12:50 | 54.51408 | 39.62877 | 32874 ft | 489 kts | 114° |
| 2026-05-06 12:50 | 54.48651 | 39.73575 | 32878 ft | 489 kts | 114° |
| 2026-05-06 12:51 | 54.45893 | 39.84252 | 32874 ft | 488 kts | 114° |
| 2026-05-06 12:51 | 54.43124 | 39.94910 | 32878 ft | 488 kts | 114° |
| 2026-05-06 12:52 | 54.40350 | 40.05544 | 32874 ft | 488 kts | 114° |
| 2026-05-06 12:52 | 54.37570 | 40.16159 | 32876 ft | 487 kts | 114° |
| 2026-05-06 12:53 | 54.34775 | 40.26748 | 32876 ft | 487 kts | 114° |
| 2026-05-06 12:53 | 54.31976 | 40.37324 | 32880 ft | 487 kts | 114° |
| 2026-05-06 12:54 | 54.29164 | 40.47897 | 32870 ft | 487 kts | 114° |
| 2026-05-06 12:54 | 54.26345 | 40.58445 | 32893 ft | 486 kts | 115° |
| 2026-05-06 12:55 | 54.23523 | 40.68949 | 32888 ft | 486 kts | 115° |
| 2026-05-06 12:55 | 54.20717 | 40.79369 | 32879 ft | 485 kts | 115° |
| 2026-05-06 12:56 | 54.17883 | 40.89831 | 32878 ft | 485 kts | 115° |
| 2026-05-06 12:56 | 54.15038 | 41.00272 | 32877 ft | 485 kts | 115° |
| 2026-05-06 12:57 | 54.12187 | 41.10681 | 32883 ft | 484 kts | 115° |
| 2026-05-06 12:57 | 54.09336 | 41.21066 | 32884 ft | 484 kts | 115° |
| 2026-05-06 12:58 | 54.06486 | 41.31435 | 32877 ft | 483 kts | 115° |
| 2026-05-06 12:58 | 54.03621 | 41.41778 | 32874 ft | 483 kts | 115° |
| 2026-05-06 12:59 | 54.00752 | 41.52105 | 32874 ft | 482 kts | 115° |
| 2026-05-06 12:59 | 53.97876 | 41.62397 | 32875 ft | 482 kts | 115° |
| 2026-05-06 13:00 | 53.94983 | 41.72663 | 32875 ft | 481 kts | 116° |
| 2026-05-06 13:00 | 53.92086 | 41.82907 | 32875 ft | 481 kts | 115° |
| 2026-05-06 13:01 | 53.89197 | 41.93130 | 32878 ft | 481 kts | 115° |
| 2026-05-06 13:01 | 53.86305 | 42.03351 | 32879 ft | 480 kts | 116° |
| 2026-05-06 13:02 | 53.83410 | 42.13470 | 32876 ft | 480 kts | 116° |
| 2026-05-06 13:02 | 53.80478 | 42.23637 | 32870 ft | 480 kts | 116° |
| 2026-05-06 13:03 | 53.77548 | 42.33781 | 32870 ft | 480 kts | 116° |
| 2026-05-06 13:03 | 53.74620 | 42.43913 | 32871 ft | 480 kts | 116° |
| 2026-05-06 13:04 | 53.71686 | 42.54022 | 32877 ft | 480 kts | 116° |
| 2026-05-06 13:04 | 53.68184 | 42.63558 | 32884 ft | 478 kts | 131° |
| 2026-05-06 13:05 | 53.63118 | 42.70732 | 32874 ft | 476 kts | 151° |
| 2026-05-06 13:05 | 53.57146 | 42.75315 | 32882 ft | 475 kts | 158° |
| 2026-05-06 13:06 | 53.51066 | 42.79672 | 32889 ft | 475 kts | 157° |
| 2026-05-06 13:06 | 53.45005 | 42.84049 | 32891 ft | 474 kts | 158° |
| 2026-05-06 13:07 | 53.38947 | 42.88421 | 32892 ft | 474 kts | 157° |
| 2026-05-06 13:07 | 53.32877 | 42.92768 | 32896 ft | 474 kts | 158° |
| 2026-05-06 13:08 | 53.27839 | 42.96350 | 32898 ft | 473 kts | 158° |
| 2026-05-06 13:08 | 53.21786 | 43.00645 | 32895 ft | 472 kts | 157° |
| 2026-05-06 13:09 | 53.15732 | 43.04925 | 32895 ft | 472 kts | 157° |
| 2026-05-06 13:09 | 53.09705 | 43.09242 | 32897 ft | 471 kts | 156° |
| 2026-05-06 13:10 | 53.03725 | 43.13730 | 32903 ft | 471 kts | 155° |
| 2026-05-06 13:10 | 52.97758 | 43.18227 | 32898 ft | 471 kts | 156° |
| 2026-05-06 13:11 | 52.91777 | 43.22659 | 32905 ft | 471 kts | 156° |
| 2026-05-06 13:11 | 52.85793 | 43.27054 | 32902 ft | 470 kts | 156° |
| 2026-05-06 13:12 | 52.79857 | 43.31414 | 32902 ft | 470 kts | 156° |
| 2026-05-06 13:12 | 52.73874 | 43.35788 | 32903 ft | 470 kts | 156° |
| 2026-05-06 13:13 | 52.67890 | 43.40151 | 32907 ft | 470 kts | 156° |
| 2026-05-06 13:13 | 52.61909 | 43.44510 | 32910 ft | 470 kts | 156° |
| 2026-05-06 13:14 | 52.55924 | 43.48855 | 32916 ft | 470 kts | 156° |
| 2026-05-06 13:14 | 52.49937 | 43.53189 | 32917 ft | 470 kts | 156° |
| 2026-05-06 13:15 | 52.43950 | 43.57514 | 32917 ft | 470 kts | 156° |
| 2026-05-06 13:15 | 52.37965 | 43.61811 | 32912 ft | 470 kts | 156° |
| 2026-05-06 13:16 | 52.31976 | 43.66112 | 32921 ft | 470 kts | 156° |
| 2026-05-06 13:16 | 52.26029 | 43.70384 | 32919 ft | 470 kts | 156° |
| 2026-05-06 13:17 | 52.20047 | 43.74647 | 32921 ft | 469 kts | 156° |
| 2026-05-06 13:17 | 52.14070 | 43.78880 | 32921 ft | 468 kts | 156° |
| 2026-05-06 13:18 | 52.08099 | 43.83111 | 32922 ft | 467 kts | 156° |
| 2026-05-06 13:18 | 52.02142 | 43.87328 | 32925 ft | 467 kts | 156° |
| 2026-05-06 13:19 | 51.96191 | 43.91520 | 32919 ft | 466 kts | 156° |
| 2026-05-06 13:19 | 51.90245 | 43.95698 | 32918 ft | 465 kts | 156° |
| 2026-05-06 13:20 | 51.84300 | 43.99860 | 32917 ft | 465 kts | 156° |
| 2026-05-06 13:20 | 51.78397 | 44.03993 | 32921 ft | 465 kts | 156° |
| 2026-05-06 13:21 | 51.72469 | 44.08135 | 32920 ft | 464 kts | 156° |
| 2026-05-06 13:21 | 51.66534 | 44.12255 | 32913 ft | 464 kts | 156° |
| 2026-05-06 13:22 | 51.60605 | 44.16356 | 32917 ft | 464 kts | 156° |
| 2026-05-06 13:22 | 51.54663 | 44.20446 | 32923 ft | 464 kts | 156° |
| 2026-05-06 13:23 | 51.48728 | 44.24533 | 32922 ft | 464 kts | 156° |
| 2026-05-06 13:23 | 51.42798 | 44.28605 | 32924 ft | 464 kts | 156° |
| 2026-05-06 13:24 | 51.36897 | 44.32651 | 32920 ft | 464 kts | 156° |
| 2026-05-06 13:24 | 51.30960 | 44.36709 | 32922 ft | 464 kts | 156° |
| 2026-05-06 13:25 | 51.25019 | 44.40756 | 32919 ft | 464 kts | 156° |
| 2026-05-06 13:25 | 51.19074 | 44.44790 | 32923 ft | 465 kts | 156° |
| 2026-05-06 13:26 | 51.12916 | 44.47897 | 32922 ft | 466 kts | 167° |
| 2026-05-06 13:26 | 51.06550 | 44.49911 | 32925 ft | 466 kts | 167° |
| 2026-05-06 13:27 | 51.00187 | 44.51917 | 32927 ft | 466 kts | 167° |
| 2026-05-06 13:27 | 50.93827 | 44.53909 | 32928 ft | 465 kts | 168° |
| 2026-05-06 13:28 | 50.87511 | 44.55886 | 32929 ft | 465 kts | 167° |
| 2026-05-06 13:28 | 50.81162 | 44.57883 | 32930 ft | 465 kts | 167° |
| 2026-05-06 13:29 | 50.74817 | 44.59864 | 32930 ft | 464 kts | 168° |
| 2026-05-06 13:29 | 50.68481 | 44.61847 | 32932 ft | 464 kts | 168° |
| 2026-05-06 13:30 | 50.62154 | 44.63815 | 32935 ft | 463 kts | 167° |
| 2026-05-06 13:30 | 50.55832 | 44.65773 | 32933 ft | 463 kts | 167° |
| 2026-05-06 13:31 | 50.49508 | 44.67730 | 32937 ft | 463 kts | 168° |
| 2026-05-06 13:31 | 50.43189 | 44.69674 | 32949 ft | 462 kts | 168° |
| 2026-05-06 13:32 | 50.36935 | 44.71586 | 32947 ft | 461 kts | 168° |
| 2026-05-06 13:32 | 50.30648 | 44.73519 | 32943 ft | 460 kts | 168° |
| 2026-05-06 13:33 | 50.24371 | 44.75449 | 32939 ft | 459 kts | 168° |
| 2026-05-06 13:33 | 50.18096 | 44.77359 | 32941 ft | 459 kts | 167° |
| 2026-05-06 13:34 | 50.11821 | 44.79256 | 32940 ft | 459 kts | 167° |
| 2026-05-06 13:34 | 50.05541 | 44.81162 | 32943 ft | 459 kts | 167° |
| 2026-05-06 13:35 | 49.99269 | 44.83067 | 32938 ft | 459 kts | 167° |
| 2026-05-06 13:35 | 49.93035 | 44.84959 | 32937 ft | 459 kts | 167° |
| 2026-05-06 13:36 | 49.86721 | 44.86861 | 32941 ft | 459 kts | 167° |
| 2026-05-06 13:36 | 49.80483 | 44.88730 | 32940 ft | 459 kts | 167° |
| 2026-05-06 13:37 | 49.74209 | 44.90605 | 32937 ft | 459 kts | 167° |
| 2026-05-06 13:37 | 49.67934 | 44.92477 | 32945 ft | 459 kts | 167° |
| 2026-05-06 13:38 | 49.61661 | 44.94358 | 32942 ft | 459 kts | 167° |
| 2026-05-06 13:38 | 49.55381 | 44.96219 | 32938 ft | 460 kts | 167° |
| 2026-05-06 13:39 | 49.49097 | 44.98075 | 32937 ft | 460 kts | 167° |
| 2026-05-06 13:39 | 49.42806 | 44.99941 | 32939 ft | 460 kts | 167° |
| 2026-05-06 13:40 | 49.36558 | 45.01775 | 32944 ft | 460 kts | 167° |
| 2026-05-06 13:40 | 49.30261 | 45.03623 | 32941 ft | 461 kts | 166° |
| 2026-05-06 13:41 | 49.23966 | 45.05474 | 32943 ft | 461 kts | 166° |
| 2026-05-06 13:41 | 49.17670 | 45.07315 | 32938 ft | 461 kts | 167° |
| 2026-05-06 13:42 | 49.11364 | 45.09147 | 32944 ft | 461 kts | 167° |
| 2026-05-06 13:42 | 49.05066 | 45.10986 | 32939 ft | 461 kts | 166° |
| 2026-05-06 13:43 | 48.98799 | 45.12801 | 32954 ft | 461 kts | 166° |
| 2026-05-06 13:43 | 48.92493 | 45.14619 | 32946 ft | 461 kts | 166° |
| 2026-05-06 13:44 | 48.86186 | 45.16440 | 32942 ft | 461 kts | 166° |
| 2026-05-06 13:44 | 48.79884 | 45.18266 | 32944 ft | 461 kts | 166° |
| 2026-05-06 13:45 | 48.73574 | 45.20085 | 32937 ft | 461 kts | 166° |
| 2026-05-06 13:45 | 48.64107 | 45.22791 | 32936 ft | 461 kts | 166° |
| 2026-05-06 13:46 | 48.57801 | 45.24590 | 32935 ft | 461 kts | 166° |
| 2026-05-06 13:46 | 48.51495 | 45.26388 | 32935 ft | 461 kts | 166° |
| 2026-05-06 13:47 | 48.45186 | 45.28179 | 32926 ft | 461 kts | 166° |
| 2026-05-06 13:47 | 48.39037 | 45.30538 | 32927 ft | 456 kts | 154° |
| 2026-05-06 13:48 | 48.33339 | 45.34661 | 32925 ft | 454 kts | 150° |
| 2026-05-06 13:48 | 48.27658 | 45.38849 | 32913 ft | 455 kts | 151° |
| 2026-05-06 13:49 | 48.21960 | 45.43020 | 32932 ft | 456 kts | 151° |
| 2026-05-06 13:49 | 48.16255 | 45.47188 | 32921 ft | 456 kts | 151° |
| 2026-05-06 13:50 | 48.10545 | 45.51358 | 32917 ft | 456 kts | 151° |
| 2026-05-06 13:50 | 48.04825 | 45.55524 | 32924 ft | 457 kts | 151° |
| 2026-05-06 13:51 | 47.99095 | 45.59677 | 32912 ft | 458 kts | 151° |
| 2026-05-06 13:51 | 47.93361 | 45.63828 | 32916 ft | 458 kts | 151° |
| 2026-05-06 13:52 | 47.87622 | 45.67981 | 32911 ft | 459 kts | 152° |
| 2026-05-06 13:52 | 47.81900 | 45.72104 | 32901 ft | 460 kts | 152° |
| 2026-05-06 13:53 | 47.76136 | 45.76254 | 32916 ft | 461 kts | 152° |
| 2026-05-06 13:53 | 47.70356 | 45.80403 | 32909 ft | 462 kts | 152° |
| 2026-05-06 13:54 | 47.64563 | 45.84535 | 32906 ft | 462 kts | 152° |
| 2026-05-06 13:54 | 47.58762 | 45.88664 | 32904 ft | 463 kts | 152° |
| 2026-05-06 13:55 | 47.52957 | 45.92801 | 32905 ft | 463 kts | 152° |
| 2026-05-06 13:55 | 47.47143 | 45.96949 | 32916 ft | 464 kts | 152° |
| 2026-05-06 13:56 | 47.41320 | 46.01072 | 32906 ft | 464 kts | 152° |
| 2026-05-06 13:56 | 47.35488 | 46.05179 | 32908 ft | 464 kts | 152° |
| 2026-05-06 13:57 | 47.29658 | 46.09286 | 32923 ft | 464 kts | 152° |
| 2026-05-06 13:57 | 47.23816 | 46.13402 | 32919 ft | 464 kts | 152° |
| 2026-05-06 13:58 | 47.17972 | 46.17499 | 32912 ft | 465 kts | 153° |
| 2026-05-06 13:58 | 47.13116 | 46.20897 | 32910 ft | 465 kts | 152° |
| 2026-05-06 13:59 | 47.07390 | 46.25281 | 32909 ft | 463 kts | 143° |
| 2026-05-06 13:59 | 47.04159 | 46.29310 | 32906 ft | 460 kts | 131° |
| 2026-05-06 13:59 | 47.02161 | 46.32958 | 32909 ft | 458 kts | 122° |